Aérodrome :
LOGIN :

S'inscrire | Disclaimer

   EN    FR    IT 

 










Légende :    VFR   VFR Marginal   IFR   IFR Intensif   IFR Très Intensif
Visi : 
Plafond : 
>= 8 km
>= 3000ft
5 à 8 km
1000 à 3000 ft
1500m à 5 km
500 à 1000 ft
800 à 1500m
200 à 500 ft
< 800m
< 200 ft
Symboles :   Orages  Brouillard  Fortes neiges  Fortes précipitations  Vent > 20 kt
SIGMETs :   Divers  Orages  Givrage  Turbulence  Onde Orograph.  Cendres Volcan.







- Altitude de l'aérodrome : 461 ft
- Code IATA : WIE


ETOU - Wiesbaden Army

DERNIER METAR :
  • 250856Z AUTO 13004KT 9999 CLR 28/16 A3010 RMK AO2 SLP187 T02780164 51004 $

METARs EXPIRÉS :
  • 250756Z AUTO 09005KT 9999 CLR 26/16 A3011 RMK AO2 SLP191 T02640163 $
  • 250656Z AUTO 11009KT 9999 CLR 25/16 A3010 RMK AO2 SLP187 T02480160

TAF TAF ETOU
Valide du 25 à 03h jusqu'au 26 à 09h UTC


250301Z 2503/2609 VRB06KT 9999 SKC QNH3006INS
BECMG 2507/2508 14009KT 9999 SKC QNH3005INS
TEMPO 2508/2512 14010G15KT TX33/2514Z TN18/2503Z
Pas de NOTAMs connus pour ce terrain.



MET'MAP, la Météo Aéronautique d'un coup d'oeil ! - Copyright ORBIFLY Décembre 2007 - Disclaimer

ORBIFLY MET'MAP TEAM :

Programmation & Développement : Alexandra Zaïnal
Conception & Développement : Baudouin d'Aumeries
Co-Programmation & Développement : Marc-Olivier Méhu
Soutien technique & logistique : Manuel Goepfert

Contact : metmap@orbifly.com




SOURCES & CREDITS :

   NOAA